Time;durP1;ratioP1;P1;durP2;ratioP2;P2;SDS_P1;SDS_P2;PMS_P1;PMS_P2;Temp;Humidity;BMP_temperature;BMP_pressure;BME280_temperature;BME280_humidity;BME280_pressure;Samples;Min_cycle;Max_cycle;Signal;HPM_P1;HPM_P2
2022/01/30 00:00:27;;;;;;;16.00;3.75;;;7.30;91.80;;;;;;5048068;28;20569;-60
2022/01/30 00:02:54;;;;;;;12.90;2.95;;;7.30;91.80;;;;;;5051446;28;20070;-60
2022/01/30 00:05:22;;;;;;;13.45;3.13;;;7.20;91.90;;;;;;5067579;28;20094;-60
2022/01/30 00:07:49;;;;;;;19.10;3.33;;;7.20;91.90;;;;;;5063286;28;20048;-60
2022/01/30 00:10:16;;;;;;;11.93;2.83;;;7.20;91.90;;;;;;5033393;28;20745;-61
2022/01/30 00:12:51;;;;;;;14.70;4.40;;;7.30;92.00;;;;;;5052271;28;20118;-62
2022/01/30 00:15:19;;;;;;;15.65;2.58;;;7.20;92.00;;;;;;5063331;28;20084;-59
2022/01/30 00:17:53;;;;;;;12.40;3.03;;;7.20;92.00;;;;;;5045918;28;20045;-58
2022/01/30 00:20:24;;;;;;;30.95;3.15;;;7.10;92.10;;;;;;5056998;28;20089;-60
2022/01/30 00:23:07;;;;;;;21.88;3.22;;;7.00;92.30;;;;;;5051503;28;20060;-58
2022/01/30 00:25:46;;;;;;;24.30;3.58;;;7.00;92.30;;;;;;5050751;28;20048;-59
2022/01/30 00:28:14;;;;;;;14.43;3.28;;;7.00;92.30;;;;;;5055341;28;20476;-58
2022/01/30 00:30:41;;;;;;;20.30;4.05;;;7.00;92.30;;;;;;5061512;28;20079;-60
2022/01/30 00:33:08;;;;;;;11.68;3.50;;;7.00;92.70;;;;;;5058102;28;20049;-60
2022/01/30 00:35:38;;;;;;;16.20;3.53;;;7.00;92.30;;;;;;5055545;28;20239;-59
2022/01/30 00:38:07;;;;;;;15.73;2.88;;;7.00;92.30;;;;;;5051472;28;20453;-59
2022/01/30 00:40:34;;;;;;;10.77;3.72;;;7.10;92.50;;;;;;5058553;28;20048;-59
2022/01/30 00:43:02;;;;;;;19.27;2.58;;;6.90;92.50;;;;;;5054375;28;20129;-59
2022/01/30 00:45:29;;;;;;;18.23;3.15;;;6.90;92.60;;;;;;5055986;28;20132;-60
2022/01/30 00:47:56;;;;;;;15.38;2.72;;;7.00;92.60;;;;;;5064887;28;20124;-59
2022/01/30 00:50:23;;;;;;;24.92;3.05;;;6.90;92.60;;;;;;5058475;28;20262;-59
2022/01/30 00:52:53;;;;;;;13.38;2.97;;;6.90;92.70;;;;;;5030532;28;20111;-59
2022/01/30 00:55:24;;;;;;;16.85;6.60;;;6.80;92.90;;;;;;5056468;28;20040;-59
2022/01/30 00:57:54;;;;;;;17.83;3.25;;;6.70;93.00;;;;;;5067938;28;20041;-59
2022/01/30 01:00:25;;;;;;;15.90;3.58;;;6.60;93.10;;;;;;5060417;28;20448;-59
2022/01/30 01:02:52;;;;;;;16.73;2.90;;;6.50;93.20;;;;;;5049301;28;20053;-59
2022/01/30 01:05:19;;;;;;;13.07;3.40;;;6.50;93.30;;;;;;5055213;28;20049;-60
2022/01/30 01:07:48;;;;;;;16.48;3.33;;;6.50;93.30;;;;;;5071208;28;20458;-59
2022/01/30 01:13:17;;;;;;;15.77;3.78;;;6.40;93.60;;;;;;5051033;28;20473;-59
2022/01/30 01:23:57;;;;;;;24.05;3.67;;;6.10;94.90;;;;;;5048768;28;20044;-60
2022/01/30 01:26:24;;;;;;;24.58;4.78;;;6.00;94.60;;;;;;5057368;28;20079;-60
2022/01/30 01:28:51;;;;;;;24.50;4.22;;;6.00;94.70;;;;;;5068771;28;20135;-59
2022/01/30 01:31:19;;;;;;;16.70;4.63;;;6.00;94.80;;;;;;5061345;28;20106;-60
2022/01/30 01:36:12;;;;;;;16.40;3.55;;;5.90;94.80;;;;;;5034795;28;20052;-59
2022/01/30 01:38:39;;;;;;;23.50;4.90;;;5.90;95.10;;;;;;5068139;28;20048;-59
2022/01/30 01:41:06;;;;;;;24.70;5.70;;;5.90;95.40;;;;;;5063264;28;20117;-59
2022/01/30 01:43:35;;;;;;;22.35;4.53;;;5.80;95.10;;;;;;5066586;28;20101;-58
2022/01/30 01:46:03;;;;;;;20.85;5.03;;;5.80;95.50;;;;;;5046365;28;20063;-59
2022/01/30 01:48:35;;;;;;;26.85;4.07;;;5.70;95.40;;;;;;5051431;28;20052;-60
2022/01/30 01:51:07;;;;;;;21.52;3.42;;;5.70;95.50;;;;;;5052081;28;20080;-59
2022/01/30 01:53:34;;;;;;;18.63;3.60;;;5.70;95.50;;;;;;5029766;28;20856;-60
2022/01/30 01:56:00;;;;;;;21.65;3.45;;;5.70;95.60;;;;;;5063368;28;20102;-60
2022/01/30 01:58:27;;;;;;;30.52;4.55;;;5.70;95.80;;;;;;5054785;28;20099;-60
2022/01/30 02:00:54;;;;;;;15.60;3.65;;;5.70;96.30;;;;;;5051766;28;20474;-60
2022/01/30 02:03:22;;;;;;;18.85;3.45;;;5.60;95.60;;;;;;5058276;28;20048;-59
2022/01/30 02:05:55;;;;;;;16.13;4.03;;;5.60;96.20;;;;;;5063797;28;20096;-60
2022/01/30 02:11:03;;;;;;;14.68;5.13;;;5.60;96.10;;;;;;5067872;28;20059;-60
2022/01/30 02:24:32;;;;;;;17.48;3.55;;;5.50;96.10;;;;;;5054991;28;20076;-59
2022/01/30 02:26:59;;;;;;;20.55;4.43;;;5.40;96.50;;;;;;5052033;28;20045;-58
2022/01/30 02:29:26;;;;;;;16.75;5.10;;;5.30;96.20;;;;;;5054785;28;20087;-59
2022/01/30 02:31:56;;;;;;;22.23;3.63;;;5.30;96.20;;;;;;5050811;28;20076;-61
2022/01/30 02:34:27;;;;;;;17.60;2.97;;;5.30;96.30;;;;;;5058343;28;20098;-60
2022/01/30 02:36:54;;;;;;;10.57;2.80;;;5.40;96.40;;;;;;5067271;28;20623;-61
2022/01/30 02:39:21;;;;;;;19.98;5.05;;;5.40;96.50;;;;;;5067648;28;20135;-64
2022/01/30 02:41:48;;;;;;;15.88;3.65;;;5.40;96.40;;;;;;5044831;28;20487;-60
2022/01/30 02:44:35;;;;;;;20.63;3.63;;;5.40;96.30;;;;;;5056137;28;20132;-59
2022/01/30 02:47:07;;;;;;;28.08;3.80;;;5.40;96.00;;;;;;5064734;28;20045;-59
2022/01/30 02:52:10;;;;;;;12.57;3.72;;;5.50;95.90;;;;;;5049147;28;20075;-59
2022/01/30 02:54:37;;;;;;;16.42;3.33;;;5.50;95.80;;;;;;5055999;28;20076;-58
2022/01/30 02:57:04;;;;;;;21.08;4.10;;;5.30;96.10;;;;;;5032643;28;20080;-58
2022/01/30 02:59:31;;;;;;;18.27;3.70;;;5.30;96.10;;;;;;5058954;28;20057;-59
2022/01/30 03:01:58;;;;;;;23.30;5.68;;;5.30;96.20;;;;;;5046733;28;20049;-59
2022/01/30 03:04:25;;;;;;;10.80;2.58;;;5.30;96.10;;;;;;5055386;28;20053;-59
2022/01/30 03:06:51;;;;;;;19.33;4.13;;;5.30;96.10;;;;;;5069049;28;20566;-60
2022/01/30 03:09:18;;;;;;;20.80;3.70;;;5.30;96.10;;;;;;5046377;28;20076;-59
2022/01/30 03:11:45;;;;;;;15.10;3.65;;;5.30;96.10;;;;;;5049647;28;20076;-59
2022/01/30 03:14:12;;;;;;;16.85;3.92;;;5.20;96.10;;;;;;5064488;28;20181;-60
2022/01/30 03:16:39;;;;;;;15.32;3.03;;;5.20;96.20;;;;;;5052652;28;20081;-59
2022/01/30 03:19:06;;;;;;;20.27;4.57;;;5.10;96.50;;;;;;5037471;28;20048;-59
2022/01/30 03:21:33;;;;;;;19.00;3.90;;;5.10;96.40;;;;;;5049383;28;20211;-60
2022/01/30 03:24:00;;;;;;;19.42;3.30;;;5.00;96.30;;;;;;5066982;28;20072;-60
2022/01/30 03:26:26;;;;;;;13.93;3.13;;;5.00;96.30;;;;;;5057552;28;20102;-59
2022/01/30 03:29:02;;;;;;;21.65;4.28;;;4.90;96.30;;;;;;5054995;28;20045;-60
2022/01/30 03:31:29;;;;;;;23.88;5.53;;;4.90;96.50;;;;;;5063853;28;20044;-59
2022/01/30 03:33:56;;;;;;;16.50;3.83;;;4.80;96.50;;;;;;5050316;28;20072;-57
2022/01/30 03:36:22;;;;;;;18.88;4.55;;;4.70;96.40;;;;;;5062018;28;20881;-58
2022/01/30 03:38:49;;;;;;;19.60;3.53;;;4.70;96.50;;;;;;5055456;28;20084;-58
2022/01/30 03:41:16;;;;;;;17.40;5.40;;;4.70;96.60;;;;;;5057702;28;20075;-60
2022/01/30 03:43:42;;;;;;;14.10;3.15;;;4.60;96.80;;;;;;5051594;28;20140;-59
2022/01/30 03:48:37;;;;;;;24.77;3.65;;;4.60;96.80;;;;;;3438150;22;20121;-57
2022/01/30 03:51:04;;;;;;;15.32;3.92;;;4.50;96.80;;;;;;5035759;28;20076;-58
2022/01/30 03:53:32;;;;;;;16.45;2.97;;;4.50;97.00;;;;;;5033268;28;20075;-57
2022/01/30 03:55:58;;;;;;;17.50;2.95;;;4.40;97.40;;;;;;5049809;28;20045;-58
2022/01/30 03:58:25;;;;;;;16.25;3.30;;;4.40;97.10;;;;;;5050337;28;20052;-58
2022/01/30 04:00:52;;;;;;;14.32;3.65;;;4.40;97.00;;;;;;5044639;28;20041;-56
2022/01/30 04:03:19;;;;;;;13.48;3.22;;;4.30;96.80;;;;;;5038880;28;20140;-57
2022/01/30 04:05:46;;;;;;;16.33;3.15;;;4.30;96.80;;;;;;5040800;28;20124;-56
2022/01/30 04:08:12;;;;;;;16.55;3.47;;;4.20;96.80;;;;;;5045327;28;20136;-56
2022/01/30 04:10:39;;;;;;;14.48;3.97;;;4.20;96.90;;;;;;5048019;28;20119;-58
2022/01/30 04:13:06;;;;;;;17.83;3.47;;;4.20;97.20;;;;;;5048598;28;20076;-57
2022/01/30 04:15:33;;;;;;;11.40;2.58;;;4.10;97.20;;;;;;5043315;28;20111;-56
2022/01/30 04:18:01;;;;;;;8.82;2.15;;;4.10;97.10;;;;;;5035635;28;20045;-57
2022/01/30 04:20:29;;;;;;;15.88;4.93;;;4.00;97.10;;;;;;5032571;28;20049;-57
2022/01/30 04:22:55;;;;;;;11.95;3.58;;;4.00;97.20;;;;;;5038343;28;20650;-57
2022/01/30 04:25:22;;;;;;;17.42;4.57;;;4.10;97.50;;;;;;5048054;28;20045;-57
2022/01/30 04:27:49;;;;;;;13.38;4.05;;;4.10;97.40;;;;;;5030651;28;20088;-59
2022/01/30 04:30:16;;;;;;;26.05;3.13;;;4.10;97.40;;;;;;5046921;28;20603;-57
2022/01/30 04:32:44;;;;;;;14.27;2.97;;;4.00;97.30;;;;;;5039252;28;20121;-57
2022/01/30 04:35:16;;;;;;;20.60;2.72;;;4.00;97.20;;;;;;5028433;28;20551;-58
2022/01/30 04:56:59;;;;;;;8.73;3.30;;;3.80;97.70;;;;;;5043279;28;20167;-57
2022/01/30 05:05:24;;;;;;;15.57;2.95;;;3.70;97.60;;;;;;5042603;28;20084;-57
2022/01/30 05:07:51;;;;;;;;;;;3.70;97.60;;;;;;5043739;28;20044;-56
2022/01/30 05:10:17;;;;;;;19.67;2.60;;;3.60;98.10;;;;;;5030010;28;19960;-57
2022/01/30 05:12:56;;;;;;;11.07;3.22;;;3.60;97.40;;;;;;5031532;28;20099;-57
2022/01/30 05:15:23;;;;;;;12.80;2.78;;;3.50;98.00;;;;;;5043743;28;20067;-58
2022/01/30 05:17:50;;;;;;;10.65;2.78;;;3.50;97.80;;;;;;5025350;28;20053;-57
2022/01/30 05:20:17;;;;;;;17.55;3.10;;;3.50;97.80;;;;;;5015651;28;20132;-58
2022/01/30 05:22:44;;;;;;;21.60;3.28;;;3.40;97.70;;;;;;5027571;28;20132;-57
2022/01/30 05:25:11;;;;;;;15.48;3.88;;;3.40;97.70;;;;;;5027151;28;20045;-58
2022/01/30 05:27:38;;;;;;;17.33;3.75;;;3.30;97.60;;;;;;5031014;28;20076;-58
2022/01/30 05:30:07;;;;;;;7.93;2.40;;;3.30;97.80;;;;;;5036641;28;20530;-56
2022/01/30 05:32:34;;;;;;;17.92;3.65;;;3.30;97.90;;;;;;5045723;28;20077;-57
2022/01/30 05:35:01;;;;;;;15.88;2.80;;;3.30;97.90;;;;;;5035354;28;20076;-57
2022/01/30 05:37:28;;;;;;;16.30;2.40;;;3.20;97.80;;;;;;5046710;28;20084;-57
2022/01/30 05:39:55;;;;;;;11.95;2.38;;;3.10;98.20;;;;;;5038222;28;20089;-58
2022/01/30 05:42:24;;;;;;;12.10;3.10;;;3.10;98.30;;;;;;5031375;28;20202;-59
2022/01/30 05:45:06;;;;;;;12.23;2.42;;;3.10;98.40;;;;;;5034487;28;20657;-56
2022/01/30 05:47:40;;;;;;;9.43;3.35;;;3.00;98.10;;;;;;5046733;28;20137;-58
2022/01/30 05:50:08;;;;;;;16.40;3.85;;;3.00;98.10;;;;;;5013791;28;20449;-57
2022/01/30 05:52:34;;;;;;;18.02;3.17;;;3.00;98.20;;;;;;5027129;28;20080;-57
2022/01/30 05:55:01;;;;;;;9.88;3.25;;;3.00;98.20;;;;;;5008212;28;20046;-58
2022/01/30 05:57:29;;;;;;;25.48;4.60;;;3.00;98.30;;;;;;5006493;28;20076;-56
2022/01/30 05:59:55;;;;;;;19.50;3.53;;;2.80;98.40;;;;;;5011116;28;20544;-56
2022/01/30 06:02:22;;;;;;;16.08;3.75;;;2.90;98.60;;;;;;5026314;28;20085;-58
2022/01/30 06:04:49;;;;;;;12.25;3.08;;;2.90;98.60;;;;;;5022428;28;20503;-57
2022/01/30 06:07:16;;;;;;;11.57;3.00;;;2.90;98.70;;;;;;5009144;28;20092;-58
2022/01/30 06:09:42;;;;;;;11.18;3.80;;;2.90;98.60;;;;;;5009275;28;20484;-57
2022/01/30 06:12:10;;;;;;;5.55;3.83;;;2.90;98.60;;;;;;5022266;28;20081;-58
2022/01/30 06:14:37;;;;;;;10.88;3.50;;;2.90;98.40;;;;;;5022632;28;20412;-57
2022/01/30 06:17:03;;;;;;;17.05;3.28;;;2.80;98.40;;;;;;5013738;28;20508;-57
2022/01/30 06:19:30;;;;;;;14.35;2.78;;;2.80;98.30;;;;;;5010617;28;20099;-59
2022/01/30 06:21:57;;;;;;;12.55;3.10;;;2.80;98.30;;;;;;5017131;28;20088;-58
2022/01/30 06:24:24;;;;;;;11.60;2.95;;;2.80;98.40;;;;;;5026366;28;20077;-57
2022/01/30 06:26:51;;;;;;;13.80;3.75;;;2.70;98.60;;;;;;5026503;28;20192;-57
2022/01/30 06:29:17;;;;;;;15.57;3.63;;;2.60;98.80;;;;;;5024519;28;20045;-58
2022/01/30 06:31:44;;;;;;;24.95;4.78;;;2.60;98.70;;;;;;5017655;28;20576;-60
2022/01/30 06:34:11;;;;;;;14.30;2.70;;;2.60;98.70;;;;;;5007104;28;20046;-56
2022/01/30 06:36:38;;;;;;;14.00;3.15;;;2.60;98.60;;;;;;5014174;28;20103;-58
2022/01/30 06:39:05;;;;;;;15.77;2.53;;;2.60;98.60;;;;;;5026372;28;20049;-56
2022/01/30 06:41:32;;;;;;;11.70;2.40;;;2.50;98.90;;;;;;5019648;28;20058;-57
2022/01/30 06:43:59;;;;;;;18.15;4.22;;;2.40;99.00;;;;;;5023923;28;20107;-57
2022/01/30 06:46:26;;;;;;;12.85;3.10;;;2.40;98.90;;;;;;5014243;28;20540;-56
2022/01/30 06:48:53;;;;;;;16.10;3.67;;;2.50;98.90;;;;;;5035470;28;20106;-57
2022/01/30 06:51:20;;;;;;;19.45;3.20;;;2.50;98.90;;;;;;5045763;28;20053;-57
2022/01/30 06:53:46;;;;;;;15.05;2.72;;;2.50;98.70;;;;;;5032650;28;20089;-57
2022/01/30 06:56:13;;;;;;;16.63;3.63;;;2.40;98.70;;;;;;5033940;28;20145;-58
2022/01/30 06:58:40;;;;;;;19.25;3.80;;;2.40;98.80;;;;;;5044444;28;20091;-57
2022/01/30 07:01:06;;;;;;;16.67;3.05;;;2.40;98.90;;;;;;5045173;28;20651;-58
2022/01/30 07:03:33;;;;;;;10.73;2.47;;;2.40;99.00;;;;;;5037042;28;20057;-58
2022/01/30 07:06:00;;;;;;;15.65;3.58;;;2.40;99.00;;;;;;5033484;28;20084;-57
2022/01/30 07:08:27;;;;;;;15.20;3.60;;;2.40;98.90;;;;;;5039945;28;20057;-57
2022/01/30 07:10:54;;;;;;;11.63;2.45;;;2.40;99.10;;;;;;5045923;28;20085;-58
2022/01/30 07:13:20;;;;;;;12.32;2.42;;;2.30;99.20;;;;;;5041068;28;20068;-59
2022/01/30 07:15:47;;;;;;;10.95;3.70;;;2.30;99.20;;;;;;5030468;28;20085;-58
2022/01/30 07:18:14;;;;;;;14.18;3.28;;;2.40;99.00;;;;;;5038038;28;20182;-58
2022/01/30 07:20:41;;;;;;;10.63;3.13;;;2.40;99.10;;;;;;5048989;28;20132;-58
2022/01/30 07:23:07;;;;;;;14.13;3.63;;;2.30;99.30;;;;;;5040760;28;20188;-58
2022/01/30 07:25:35;;;;;;;13.05;2.42;;;2.30;99.30;;;;;;5028674;28;20100;-58
2022/01/30 07:28:02;;;;;;;9.02;3.00;;;2.30;99.30;;;;;;5016031;28;20054;-59
2022/01/30 07:30:28;;;;;;;15.38;2.47;;;2.30;99.30;;;;;;5048843;28;20816;-57
2022/01/30 07:32:55;;;;;;;10.27;2.47;;;2.20;99.30;;;;;;5036710;28;20115;-58
2022/01/30 07:35:22;;;;;;;6.85;2.42;;;2.20;99.20;;;;;;5047679;28;20048;-57
2022/01/30 07:37:51;;;;;;;15.25;3.75;;;2.20;99.20;;;;;;4693357;28;9999821;-59
2022/01/30 07:40:18;;;;;;;15.15;2.35;;;2.20;99.40;;;;;;5032107;28;20041;-57
2022/01/30 07:42:45;;;;;;;18.75;4.55;;;2.10;99.50;;;;;;5018977;28;20085;-59
2022/01/30 07:45:12;;;;;;;15.80;4.20;;;2.10;99.40;;;;;;5038909;28;20531;-57
2022/01/30 07:47:39;;;;;;;23.80;4.13;;;2.20;99.30;;;;;;5036465;28;20068;-55
2022/01/30 07:50:07;;;;;;;16.80;3.78;;;2.10;99.50;;;;;;5037597;28;20876;-58
2022/01/30 07:52:34;;;;;;;11.27;2.75;;;2.20;99.60;;;;;;5035392;28;20073;-57
2022/01/30 07:55:01;;;;;;;17.38;3.20;;;2.20;99.70;;;;;;5038127;28;20049;-59
2022/01/30 07:57:27;;;;;;;16.08;3.60;;;2.30;99.50;;;;;;5034733;28;20172;-57
2022/01/30 07:59:54;;;;;;;9.82;2.60;;;2.20;99.50;;;;;;5039314;28;20352;-55
2022/01/30 08:02:21;;;;;;;17.30;3.65;;;2.20;99.70;;;;;;5035640;28;20143;-59
2022/01/30 08:04:48;;;;;;;12.18;3.53;;;2.20;99.70;;;;;;5019531;28;20044;-58
2022/01/30 08:07:15;;;;;;;16.38;3.90;;;2.20;99.60;;;;;;5036618;28;20045;-58
2022/01/30 08:09:42;;;;;;;11.23;2.78;;;2.20;99.60;;;;;;5036886;28;20076;-58
2022/01/30 08:12:09;;;;;;;15.73;3.03;;;2.20;99.60;;;;;;5034514;28;20049;-58
2022/01/30 08:14:36;;;;;;;16.05;3.13;;;2.30;99.70;;;;;;5037990;28;20102;-61
2022/01/30 08:17:03;;;;;;;23.48;4.45;;;2.30;99.60;;;;;;5036440;28;20106;-57
2022/01/30 08:19:30;;;;;;;12.73;2.80;;;2.30;99.60;;;;;;5034057;28;20053;-57
2022/01/30 08:22:03;;;;;;;15.85;3.92;;;2.30;99.70;;;;;;5035927;28;20049;-58
2022/01/30 08:24:30;;;;;;;13.80;2.25;;;2.30;99.60;;;;;;5034611;28;20041;-57
2022/01/30 08:26:56;;;;;;;15.25;3.85;;;2.30;99.60;;;;;;5035900;28;20144;-59
2022/01/30 08:29:23;;;;;;;11.43;2.63;;;2.30;99.70;;;;;;5034900;28;20056;-58
2022/01/30 08:31:50;;;;;;;15.75;4.63;;;2.40;99.80;;;;;;5035663;28;20205;-58
2022/01/30 08:34:17;;;;;;;11.30;2.97;;;2.40;99.80;;;;;;5033075;28;20053;-58
2022/01/30 08:36:43;;;;;;;12.98;3.35;;;2.40;99.90;;;;;;5037415;28;20045;-58
2022/01/30 08:39:11;;;;;;;19.05;2.60;;;2.40;99.90;;;;;;5036214;28;20134;-58
2022/01/30 08:41:38;;;;;;;14.63;3.13;;;2.40;99.90;;;;;;5036023;28;20083;-58
2022/01/30 08:44:05;;;;;;;14.63;3.20;;;2.50;99.90;;;;;;5031432;28;20087;-60
2022/01/30 08:46:32;;;;;;;15.13;3.38;;;2.50;99.90;;;;;;5033731;28;20551;-58
2022/01/30 08:48:59;;;;;;;12.90;4.40;;;2.90;99.90;;;;;;5042060;28;20107;-58
2022/01/30 08:51:26;;;;;;;13.18;3.25;;;2.60;99.90;;;;;;5036576;28;20050;-57
2022/01/30 08:53:52;;;;;;;18.05;4.28;;;2.60;99.90;;;;;;5025798;28;20832;-63
2022/01/30 08:56:21;;;;;;;11.48;2.45;;;2.70;99.90;;;;;;5007498;28;20052;-59
2022/01/30 08:58:49;;;;;;;18.95;4.45;;;2.70;99.90;;;;;;5040613;28;20507;-59
2022/01/30 09:01:16;;;;;;;19.65;3.20;;;2.80;99.90;;;;;;5034552;28;20128;-59
2022/01/30 09:03:43;;;;;;;16.35;3.42;;;2.80;99.90;;;;;;5032044;28;20081;-59
2022/01/30 09:06:10;;;;;;;11.02;3.00;;;2.80;99.90;;;;;;5030782;28;20050;-59
2022/01/30 09:08:37;;;;;;;18.88;3.30;;;2.90;99.90;;;;;;5041857;28;20074;-58
2022/01/30 09:11:04;;;;;;;12.43;3.75;;;2.90;99.90;;;;;;5034735;28;20095;-59
2022/01/30 09:13:31;;;;;;;14.45;3.45;;;3.00;99.90;;;;;;5032919;28;20566;-58
2022/01/30 09:15:59;;;;;;;27.98;4.20;;;3.20;99.90;;;;;;5030898;28;20107;-61
2022/01/30 09:18:26;;;;;;;17.60;4.82;;;3.50;99.60;;;;;;5033223;28;20045;-59
2022/01/30 09:20:53;;;;;;;20.00;5.50;;;3.50;99.50;;;;;;5036104;28;20111;-58
2022/01/30 09:23:20;;;;;;;12.57;4.55;;;3.50;99.70;;;;;;5033323;28;20344;-58
2022/01/30 09:25:47;;;;;;;28.40;4.63;;;3.60;99.70;;;;;;5031890;28;20049;-59
2022/01/30 09:28:14;;;;;;;12.65;3.70;;;3.60;99.70;;;;;;5032526;28;20091;-58
2022/01/30 09:30:41;;;;;;;25.00;5.97;;;3.60;99.70;;;;;;5029969;28;20045;-59
2022/01/30 09:33:08;;;;;;;17.10;3.95;;;3.70;99.90;;;;;;5037050;28;20077;-58
2022/01/30 09:35:35;;;;;;;14.70;4.03;;;3.80;99.80;;;;;;5042692;28;20058;-58
2022/01/30 09:38:02;;;;;;;14.90;4.15;;;3.80;99.70;;;;;;5036904;28;20171;-59
2022/01/30 09:40:29;;;;;;;12.18;2.95;;;4.00;99.80;;;;;;5032108;28;20048;-58
2022/01/30 09:42:56;;;;;;;15.48;3.47;;;4.00;99.80;;;;;;5034446;28;20115;-57
2022/01/30 09:45:23;;;;;;;20.73;3.78;;;4.10;99.80;;;;;;5043956;28;20087;-59
2022/01/30 09:47:50;;;;;;;23.25;6.53;;;4.10;99.90;;;;;;5014898;28;20139;-58
2022/01/30 09:50:17;;;;;;;14.75;4.30;;;4.20;99.80;;;;;;5022820;28;20187;-59
2022/01/30 09:52:44;;;;;;;14.75;3.40;;;4.20;99.70;;;;;;5036104;28;20459;-59
2022/01/30 09:55:20;;;;;;;22.42;6.25;;;4.20;99.60;;;;;;5019880;28;20133;-59
2022/01/30 09:57:53;;;;;;;13.00;3.53;;;4.30;99.60;;;;;;5009784;28;20156;-59
2022/01/30 10:00:20;;;;;;;10.32;4.30;;;4.30;99.50;;;;;;5031231;28;20056;-59
2022/01/30 10:02:46;;;;;;;12.80;4.35;;;4.40;99.90;;;;;;5041023;28;20054;-58
2022/01/30 10:05:14;;;;;;;27.83;4.40;;;4.40;99.60;;;;;;5032730;28;20551;-59
2022/01/30 10:07:42;;;;;;;23.50;5.63;;;4.50;99.40;;;;;;5036659;28;20068;-59
2022/01/30 10:10:12;;;;;;;19.88;4.13;;;4.60;99.40;;;;;;5018524;28;20048;-59
2022/01/30 10:12:59;;;;;;;13.73;2.95;;;4.60;99.40;;;;;;5038946;28;20146;-60
2022/01/30 10:15:26;;;;;;;18.55;4.80;;;4.70;99.30;;;;;;5035513;28;20041;-58
2022/01/30 10:17:53;;;;;;;25.17;3.40;;;4.70;99.20;;;;;;5038473;28;20079;-59
2022/01/30 10:20:36;;;;;;;22.20;5.70;;;4.70;99.20;;;;;;5035197;28;20103;-60
2022/01/30 10:23:08;;;;;;;20.92;4.15;;;4.80;99.20;;;;;;5015334;28;20077;-60
2022/01/30 10:25:37;;;;;;;12.50;2.83;;;4.80;99.20;;;;;;5037602;28;20118;-59
2022/01/30 10:28:09;;;;;;;17.45;3.20;;;4.80;99.00;;;;;;5037317;28;20649;-60
2022/01/30 10:30:44;;;;;;;17.65;3.90;;;4.90;99.00;;;;;;5040644;28;20523;-60
2022/01/30 10:33:12;;;;;;;13.55;3.97;;;5.00;99.00;;;;;;5039125;28;20190;-58
2022/01/30 10:35:47;;;;;;;20.85;5.28;;;5.00;98.90;;;;;;5041347;28;20770;-58
2022/01/30 10:38:32;;;;;;;23.67;5.22;;;5.00;99.00;;;;;;5018738;28;20088;-60
2022/01/30 10:41:22;;;;;;;32.45;4.93;;;5.10;98.80;;;;;;5041072;28;20170;-59
2022/01/30 10:43:53;;;;;;;17.33;4.90;;;5.10;98.70;;;;;;5037835;28;20478;-60
2022/01/30 10:46:21;;;;;;;28.55;4.43;;;5.20;98.60;;;;;;5038352;28;20045;-59
2022/01/30 10:49:02;;;;;;;14.57;4.10;;;5.30;98.40;;;;;;5037431;28;20061;-58
2022/01/30 10:51:32;;;;;;;17.92;3.33;;;5.30;98.40;;;;;;5022840;28;20087;-57
2022/01/30 10:54:13;;;;;;;23.92;4.97;;;5.30;98.20;;;;;;5039151;28;20083;-60
2022/01/30 10:56:40;;;;;;;22.92;3.88;;;5.30;98.20;;;;;;5039685;28;20744;-59
2022/01/30 10:59:11;;;;;;;21.00;4.20;;;5.40;98.40;;;;;;5035680;28;20121;-59
2022/01/30 11:01:42;;;;;;;23.08;4.55;;;5.40;98.30;;;;;;5038445;28;20088;-60
2022/01/30 11:04:30;;;;;;;23.60;4.25;;;5.50;98.00;;;;;;5034539;28;20068;-60
2022/01/30 11:07:04;;;;;;;19.70;3.95;;;5.50;97.70;;;;;;5036034;28;20045;-60
2022/01/30 11:09:35;;;;;;;17.52;4.07;;;5.60;97.40;;;;;;5038738;28;20140;-59
2022/01/30 11:12:09;;;;;;;;;;;5.60;97.70;;;;;;5013912;28;20132;-57
2022/01/30 11:14:39;;;;;;;21.13;4.70;;;5.60;96.90;;;;;;5024785;28;20336;-57
2022/01/30 11:17:08;;;;;;;21.13;4.22;;;5.70;97.30;;;;;;5034342;28;20080;-58
2022/01/30 11:19:40;;;;;;;58.20;6.53;;;5.80;97.00;;;;;;5036364;28;20076;-57
2022/01/30 11:22:18;;;;;;;25.63;4.82;;;5.80;97.10;;;;;;5033051;28;20080;-57
2022/01/30 11:24:47;;;;;;;42.45;7.00;;;5.80;96.60;;;;;;5036243;28;20042;-59
2022/01/30 11:27:15;;;;;;;23.17;5.22;;;5.90;96.80;;;;;;5029064;28;20156;-58
2022/01/30 11:29:42;;;;;;;22.02;3.70;;;5.90;96.60;;;;;;5024824;28;20075;-58
2022/01/30 11:32:09;;;;;;;19.00;3.60;;;5.90;96.60;;;;;;5035633;28;20075;-59
2022/01/30 11:34:38;;;;;;;27.92;5.55;;;6.00;96.80;;;;;;5041207;28;20048;-58
2022/01/30 11:37:06;;;;;;;16.50;3.67;;;6.00;96.50;;;;;;5039618;28;20095;-60
2022/01/30 11:39:33;;;;;;;25.58;5.35;;;6.10;96.50;;;;;;5043006;28;20053;-59
2022/01/30 11:42:09;;;;;;;28.27;4.35;;;6.10;96.60;;;;;;5018085;28;20484;-59
2022/01/30 11:44:41;;;;;;;33.22;5.45;;;6.10;96.40;;;;;;5036454;28;20551;-60
2022/01/30 11:47:08;;;;;;;31.50;4.38;;;6.10;96.40;;;;;;5032253;28;20094;-60
2022/01/30 11:49:48;;;;;;;15.77;4.53;;;6.20;96.40;;;;;;5036089;28;20098;-59
2022/01/30 11:52:16;;;;;;;24.83;4.95;;;6.20;95.50;;;;;;5035888;28;20061;-61
2022/01/30 11:54:47;;;;;;;25.45;4.85;;;6.10;96.10;;;;;;5041563;28;20144;-59
2022/01/30 11:57:22;;;;;;;24.90;5.60;;;6.20;96.00;;;;;;5037609;28;20060;-58
2022/01/30 11:59:53;;;;;;;22.50;4.63;;;6.20;95.80;;;;;;5027451;28;20148;-59
2022/01/30 12:02:36;;;;;;;23.88;5.47;;;6.20;95.70;;;;;;5017664;28;20061;-59
2022/01/30 12:05:10;;;;;;;14.15;3.72;;;6.30;95.50;;;;;;5027630;28;20053;-60
2022/01/30 12:07:44;;;;;;;30.45;3.55;;;6.30;95.90;;;;;;5034393;28;20131;-59
2022/01/30 12:10:29;;;;;;;28.02;5.30;;;6.40;95.80;;;;;;5036246;28;20136;-59
2022/01/30 12:12:57;;;;;;;24.65;3.58;;;6.40;95.30;;;;;;5026786;28;20782;-61
2022/01/30 12:15:43;;;;;;;16.02;3.30;;;6.50;95.70;;;;;;5028982;28;20445;-60
2022/01/30 12:18:11;;;;;;;26.27;4.22;;;6.50;95.10;;;;;;5038374;28;20037;-60
2022/01/30 12:20:57;;;;;;;18.98;4.82;;;6.60;95.70;;;;;;5044938;28;20088;-59
2022/01/30 12:23:27;;;;;;;20.83;3.90;;;6.70;95.00;;;;;;5037766;28;20077;-60
2022/01/30 12:25:57;;;;;;;10.90;3.53;;;6.80;95.60;;;;;;5040733;28;20057;-59
2022/01/30 12:28:50;;;;;;;20.20;3.03;;;6.90;95.40;;;;;;5020158;28;20499;-60
2022/01/30 12:31:31;;;;;;;22.33;3.28;;;6.90;94.50;;;;;;5027731;28;20208;-59
2022/01/30 12:34:04;;;;;;;11.38;3.33;;;7.00;93.90;;;;;;5014834;28;20061;-59
2022/01/30 12:36:35;;;;;;;17.58;4.40;;;7.00;94.80;;;;;;5028472;28;20125;-59
2022/01/30 12:39:10;;;;;;;10.07;2.42;;;7.00;94.90;;;;;;5038394;28;20115;-59
2022/01/30 12:41:38;;;;;;;12.70;3.75;;;7.10;94.30;;;;;;5027631;28;20100;-60
2022/01/30 12:44:07;;;;;;;22.95;3.60;;;7.20;94.70;;;;;;5035327;28;20640;-60
2022/01/30 12:46:47;;;;;;;24.35;4.68;;;7.10;93.40;;;;;;5043071;28;20045;-60
2022/01/30 12:49:25;;;;;;;10.02;2.97;;;7.20;94.50;;;;;;5037543;28;20095;-59
2022/01/30 12:51:56;;;;;;;20.80;3.22;;;7.20;94.30;;;;;;5023712;28;20133;-58
2022/01/30 12:54:35;;;;;;;16.85;3.28;;;7.30;94.00;;;;;;5017782;28;20045;-61
2022/01/30 12:57:03;;;;;;;11.52;2.17;;;7.30;93.60;;;;;;5009001;28;20180;-60
2022/01/30 12:59:30;;;;;;;19.15;4.78;;;7.40;93.30;;;;;;5035514;28;20182;-59
2022/01/30 13:02:07;;;;;;;9.93;2.50;;;7.30;93.40;;;;;;5024840;28;20053;-61
2022/01/30 13:04:37;;;;;;;13.23;3.30;;;7.50;92.80;;;;;;5017765;28;20052;-60
2022/01/30 13:07:04;;;;;;;12.60;3.28;;;7.60;91.80;;;;;;5024616;28;20057;-61
2022/01/30 13:09:31;;;;;;;24.98;3.33;;;7.60;90.90;;;;;;5012810;28;20053;-59
2022/01/30 13:11:59;;;;;;;22.10;2.88;;;7.60;92.60;;;;;;5018912;28;20090;-58
2022/01/30 13:14:37;;;;;;;16.73;2.72;;;7.70;91.70;;;;;;5038732;28;20498;-59
2022/01/30 13:17:04;;;;;;;15.38;3.00;;;7.70;90.80;;;;;;5037243;28;20080;-60
2022/01/30 13:19:38;;;;;;;6.40;1.90;;;7.70;91.90;;;;;;5001938;28;20143;-62
2022/01/30 13:22:07;;;;;;;17.13;2.38;;;7.80;90.80;;;;;;5006915;28;20115;-60
2022/01/30 13:24:34;;;;;;;9.85;2.35;;;7.80;90.90;;;;;;5028350;28;20088;-59
2022/01/30 13:27:11;;;;;;;13.30;3.28;;;7.90;90.90;;;;;;5043389;28;20053;-60
2022/01/30 13:29:42;;;;;;;14.07;2.95;;;7.90;90.10;;;;;;5040057;28;20322;-59
2022/01/30 13:32:10;;;;;;;23.90;2.58;;;8.00;91.20;;;;;;5026089;28;20335;-58
2022/01/30 13:34:42;;;;;;;13.52;2.72;;;8.10;88.80;;;;;;5032265;28;20548;-60
2022/01/30 13:37:11;;;;;;;14.48;3.13;;;8.10;90.20;;;;;;5023681;28;20470;-59
2022/01/30 13:39:42;;;;;;;11.65;3.70;;;8.00;87.10;;;;;;5039950;28;20056;-60
2022/01/30 13:48:07;;;;;;;14.57;2.75;;;8.10;83.00;;;;;;5033554;28;20060;-58
2022/01/30 13:51:03;;;;;;;17.85;2.53;;;8.10;85.90;;;;;;5037892;28;20111;-59
2022/01/30 13:53:31;;;;;;;24.92;2.85;;;8.00;82.40;;;;;;5019211;28;20045;-59
2022/01/30 13:56:06;;;;;;;16.95;3.47;;;8.10;87.10;;;;;;5036446;28;20056;-59
2022/01/30 13:58:46;;;;;;;14.95;3.35;;;8.10;90.00;;;;;;5040259;28;20759;-59
2022/01/30 14:01:19;;;;;;;18.00;3.17;;;8.30;85.10;;;;;;5028948;28;20140;-58